createdAt,value
2023-12-04T00:01:46.409Z,23.15
2023-12-04T00:04:13.978Z,24.52
2023-12-04T00:06:43.099Z,22.33
2023-12-04T00:09:10.119Z,23.55
2023-12-04T00:11:36.908Z,22.27
2023-12-04T00:14:03.727Z,22.30
2023-12-04T00:16:30.483Z,22.67
2023-12-04T00:18:57.867Z,19.77
2023-12-04T00:21:24.708Z,20.75
2023-12-04T00:23:52.055Z,23.85
2023-12-04T00:26:19.045Z,21.88
2023-12-04T00:28:45.856Z,22.10
2023-12-04T00:31:12.766Z,21.63
2023-12-04T00:33:39.655Z,22.70
2023-12-04T00:36:06.796Z,21.38
2023-12-04T00:38:33.643Z,20.38
2023-12-04T00:41:00.461Z,20.80
2023-12-04T00:43:27.366Z,20.23
2023-12-04T00:45:54.594Z,16.65
2023-12-04T00:48:21.693Z,19.60
2023-12-04T00:50:48.526Z,20.00
2023-12-04T00:53:15.361Z,23.15
2023-12-04T00:55:42.168Z,16.70
2023-12-04T00:58:09.066Z,23.33
2023-12-04T01:00:35.954Z,15.85
2023-12-04T01:03:03.052Z,18.08
2023-12-04T01:05:29.950Z,18.67
2023-12-04T01:07:56.756Z,18.77
2023-12-04T01:10:24.043Z,18.38
2023-12-04T01:12:50.879Z,19.65
2023-12-04T01:15:17.832Z,19.55
2023-12-04T01:17:44.824Z,14.90
2023-12-04T01:20:12.031Z,20.98
2023-12-04T01:22:38.842Z,16.95
2023-12-04T01:25:06.147Z,19.70
2023-12-04T01:27:33.190Z,21.05
2023-12-04T01:30:00.059Z,18.92
2023-12-04T01:32:27.055Z,19.73
2023-12-04T01:34:54.280Z,21.67
2023-12-04T01:37:21.150Z,20.05
2023-12-04T01:39:48.099Z,16.35
2023-12-04T01:42:15.004Z,20.17
2023-12-04T01:44:41.700Z,15.82
2023-12-04T01:47:08.819Z,18.65
2023-12-04T01:49:35.796Z,20.33
2023-12-04T01:52:03.595Z,20.80
2023-12-04T01:54:31.480Z,20.83
2023-12-04T01:56:59.148Z,20.25
2023-12-04T01:59:27.050Z,18.63
2023-12-04T02:01:54.698Z,19.50
2023-12-04T02:04:22.063Z,21.55
2023-12-04T02:06:48.946Z,20.27
2023-12-04T02:09:17.378Z,19.17
2023-12-04T02:11:44.573Z,14.45
2023-12-04T02:14:11.497Z,20.40
2023-12-04T02:16:41.745Z,19.40
2023-12-04T02:19:10.075Z,16.35
2023-12-04T02:21:36.976Z,22.27
2023-12-04T02:24:03.801Z,16.77
2023-12-04T02:26:36.132Z,19.67
2023-12-04T02:31:36.099Z,16.42
2023-12-04T02:34:07.173Z,22.45
2023-12-04T02:36:36.473Z,18.73
2023-12-04T02:39:04.027Z,19.10
2023-12-04T02:41:30.801Z,19.02
2023-12-04T02:43:57.673Z,18.92
2023-12-04T02:46:24.631Z,17.92
2023-12-04T02:48:51.569Z,20.52
2023-12-04T02:51:18.460Z,20.75
2023-12-04T02:53:45.346Z,20.55
2023-12-04T02:56:12.438Z,20.70
2023-12-04T02:58:39.234Z,18.92
2023-12-04T03:01:06.524Z,19.08
2023-12-04T03:03:33.555Z,22.00
2023-12-04T03:06:00.407Z,20.83
2023-12-04T03:08:27.259Z,21.35
2023-12-04T03:10:54.033Z,21.73
2023-12-04T03:13:20.861Z,21.25
2023-12-04T03:15:47.836Z,20.70
2023-12-04T03:18:14.755Z,21.55
2023-12-04T03:20:41.744Z,22.95
2023-12-04T03:23:08.658Z,24.65
2023-12-04T03:25:35.450Z,21.77
2023-12-04T03:28:02.402Z,20.20
2023-12-04T03:30:29.449Z,23.75
2023-12-04T03:32:56.285Z,25.60
2023-12-04T03:35:23.120Z,21.83
2023-12-04T03:37:50.878Z,20.10
2023-12-04T03:40:17.867Z,23.63
2023-12-04T03:42:44.855Z,25.70
2023-12-04T03:45:11.610Z,25.20
2023-12-04T03:47:38.443Z,22.52
2023-12-04T03:50:06.304Z,22.65
2023-12-04T03:52:33.085Z,23.77
2023-12-04T03:54:59.854Z,29.42
2023-12-04T03:57:26.578Z,24.85
2023-12-04T03:59:53.358Z,27.60
2023-12-04T04:02:20.106Z,27.02
2023-12-04T04:04:46.839Z,26.40
2023-12-04T04:07:13.785Z,30.08
2023-12-04T04:09:40.641Z,27.25
2023-12-04T04:12:07.545Z,30.63
2023-12-04T04:14:34.528Z,33.22
2023-12-04T04:17:01.319Z,29.08
2023-12-04T04:19:28.241Z,31.17
2023-12-04T04:21:55.024Z,27.48
2023-12-04T04:24:21.909Z,28.20
2023-12-04T04:26:48.678Z,30.25
2023-12-04T04:29:15.422Z,29.75
2023-12-04T04:31:42.209Z,26.63
2023-12-04T04:34:09.036Z,26.63
2023-12-04T04:36:36.892Z,28.10
2023-12-04T04:39:04.419Z,30.30
2023-12-04T04:41:31.330Z,31.55
2023-12-04T04:43:58.146Z,29.08
2023-12-04T04:46:26.509Z,29.63
2023-12-04T04:48:53.557Z,32.70
2023-12-04T04:51:20.394Z,28.13
2023-12-04T04:53:47.257Z,29.23
2023-12-04T04:56:14.111Z,31.58
2023-12-04T04:58:40.908Z,31.00
2023-12-04T05:01:09.090Z,26.73
2023-12-04T05:03:35.972Z,30.05
2023-12-04T05:06:03.103Z,34.20
2023-12-04T05:08:29.897Z,31.02
2023-12-04T05:10:57.405Z,29.50
2023-12-04T05:13:24.263Z,30.85
2023-12-04T05:15:51.171Z,30.08
2023-12-04T05:18:17.962Z,28.20
2023-12-04T05:20:44.718Z,29.05
2023-12-04T05:23:11.535Z,26.30
2023-12-04T05:25:44.917Z,30.75
2023-12-04T05:28:15.278Z,27.02
2023-12-04T05:30:42.092Z,31.38
2023-12-04T05:33:08.932Z,29.13
2023-12-04T05:35:37.319Z,32.17
2023-12-04T05:38:04.151Z,37.65
2023-12-04T05:40:31.216Z,29.65
2023-12-04T05:42:58.014Z,29.42
2023-12-04T05:45:24.977Z,33.30
2023-12-04T05:47:51.906Z,30.60
2023-12-04T05:50:19.262Z,31.67
2023-12-04T05:52:46.162Z,30.52
2023-12-04T05:55:13.103Z,29.40
2023-12-04T05:57:40.519Z,33.88
2023-12-04T06:00:17.538Z,33.60
2023-12-04T06:02:44.893Z,31.60
2023-12-04T06:05:12.397Z,36.55
2023-12-04T06:07:39.924Z,31.98
2023-12-04T06:10:08.275Z,28.52
2023-12-04T06:12:35.633Z,33.42
2023-12-04T06:15:03.197Z,35.08
2023-12-04T06:17:30.304Z,34.05
2023-12-04T06:19:57.313Z,34.40
2023-12-04T06:22:24.627Z,38.08
2023-12-04T06:24:51.795Z,33.13
2023-12-04T06:27:23.122Z,31.20
2023-12-04T06:29:52.913Z,34.60
2023-12-04T06:32:21.044Z,35.47
2023-12-04T06:34:48.266Z,39.05
2023-12-04T06:37:17.216Z,32.53
2023-12-04T06:39:46.907Z,36.47
2023-12-04T06:42:14.275Z,38.10
2023-12-04T06:44:41.384Z,30.58
2023-12-04T06:47:09.957Z,32.03
2023-12-04T06:49:36.833Z,35.90
2023-12-04T06:52:04.518Z,33.85
2023-12-04T06:54:31.759Z,34.05
2023-12-04T06:56:58.595Z,33.13
2023-12-04T06:59:25.436Z,30.40
2023-12-04T07:01:52.748Z,31.63
2023-12-04T07:04:22.607Z,35.30
2023-12-04T07:06:50.468Z,32.28
2023-12-04T07:09:21.393Z,36.08
2023-12-04T07:11:48.224Z,31.55
2023-12-04T07:14:15.141Z,35.15
2023-12-04T07:16:45.472Z,33.38
2023-12-04T07:19:12.759Z,30.02
2023-12-04T07:21:40.110Z,29.67
2023-12-04T07:24:07.718Z,35.28
2023-12-04T07:26:35.548Z,36.17
2023-12-04T07:29:03.525Z,35.88
2023-12-04T07:31:30.473Z,34.67
2023-12-04T07:33:57.765Z,34.78
2023-12-04T07:36:26.168Z,34.83
2023-12-04T07:38:55.093Z,37.30
2023-12-04T07:41:23.065Z,35.97
2023-12-04T07:43:50.234Z,34.38
2023-12-04T07:46:17.275Z,37.13
2023-12-04T07:48:45.302Z,31.75
2023-12-04T07:51:12.388Z,35.35
2023-12-04T07:53:39.334Z,34.95
2023-12-04T07:56:06.584Z,36.17
2023-12-04T07:58:33.579Z,35.70
2023-12-04T08:01:00.890Z,39.85
2023-12-04T08:03:28.281Z,36.10
2023-12-04T08:05:55.139Z,35.15
2023-12-04T08:08:22.450Z,35.97
2023-12-04T08:10:49.581Z,32.47
2023-12-04T08:13:17.651Z,34.88
2023-12-04T08:15:45.496Z,34.45
2023-12-04T08:18:12.668Z,36.75
2023-12-04T08:20:41.031Z,32.97
2023-12-04T08:23:09.403Z,31.00
2023-12-04T08:25:40.360Z,31.77
2023-12-04T08:28:10.015Z,34.03
2023-12-04T08:30:37.205Z,33.28
2023-12-04T08:33:04.244Z,35.33
2023-12-04T08:35:31.252Z,33.83
2023-12-04T08:37:58.322Z,32.58
2023-12-04T08:40:25.286Z,30.58
2023-12-04T08:42:52.120Z,33.00
2023-12-04T08:45:20.162Z,34.72
2023-12-04T08:47:47.371Z,30.50
2023-12-04T08:50:14.388Z,33.60
2023-12-04T08:52:43.206Z,29.48
2023-12-04T08:55:11.415Z,29.58
2023-12-04T08:57:38.534Z,25.02
2023-12-04T09:00:06.078Z,33.17
2023-12-04T09:02:37.314Z,30.63
2023-12-04T09:05:04.876Z,28.08
2023-12-04T09:10:08.119Z,28.33
2023-12-04T09:12:38.832Z,28.98
2023-12-04T09:15:07.037Z,30.25
2023-12-04T09:20:07.451Z,27.83
2023-12-04T09:22:47.914Z,27.85
2023-12-04T09:25:17.581Z,27.55
2023-12-04T09:27:44.417Z,29.23
2023-12-04T09:30:11.668Z,26.98
2023-12-04T09:32:38.700Z,26.52
2023-12-04T09:35:06.118Z,26.38
2023-12-04T09:37:33.155Z,24.85
2023-12-04T09:40:00.233Z,28.55
2023-12-04T09:42:27.572Z,26.73
2023-12-04T09:44:55.559Z,26.17
2023-12-04T09:47:23.823Z,30.10
2023-12-04T09:49:53.018Z,26.45
2023-12-04T09:52:21.619Z,27.90
2023-12-04T09:54:48.564Z,25.10
2023-12-04T09:57:16.195Z,25.45
2023-12-04T09:59:45.666Z,25.05
2023-12-04T10:02:13.032Z,26.70
2023-12-04T10:04:41.016Z,21.73
2023-12-04T10:07:07.925Z,28.30
2023-12-04T10:09:35.096Z,25.45
2023-12-04T10:12:02.722Z,24.20
2023-12-04T10:14:29.608Z,22.58
2023-12-04T10:16:56.467Z,24.25
2023-12-04T10:19:27.602Z,26.60
2023-12-04T10:22:02.259Z,26.40
2023-12-04T10:24:29.971Z,27.23
2023-12-04T10:26:57.466Z,26.08
2023-12-04T10:29:25.675Z,21.35
2023-12-04T10:31:53.947Z,22.77
2023-12-04T10:34:21.601Z,22.52
2023-12-04T10:36:48.583Z,25.27
2023-12-04T10:39:15.500Z,24.50
2023-12-04T10:41:43.382Z,23.13
2023-12-04T10:44:11.201Z,24.17
2023-12-04T10:46:39.763Z,25.45
2023-12-04T10:49:07.236Z,24.30
2023-12-04T10:51:35.979Z,22.83
2023-12-04T10:54:06.628Z,22.92
2023-12-04T10:56:41.963Z,21.45
2023-12-04T10:59:16.388Z,24.30
2023-12-04T11:01:46.555Z,21.55
2023-12-04T11:04:20.158Z,24.20
2023-12-04T11:06:50.707Z,22.88
2023-12-04T11:09:19.908Z,24.08
2023-12-04T11:11:52.379Z,23.92
2023-12-04T11:14:23.570Z,23.08
2023-12-04T11:16:58.334Z,22.65
2023-12-04T11:19:51.233Z,26.30
2023-12-04T11:22:21.281Z,22.63
2023-12-04T11:24:52.168Z,21.25
2023-12-04T11:27:19.415Z,22.45
2023-12-04T11:29:48.989Z,21.20
2023-12-04T11:32:19.514Z,21.48
2023-12-04T11:35:13.251Z,20.70
2023-12-04T11:37:39.982Z,19.45
2023-12-04T11:40:08.761Z,21.45
2023-12-04T11:42:36.876Z,21.10
2023-12-04T11:45:04.139Z,22.05
2023-12-04T11:47:31.818Z,21.55
2023-12-04T11:49:58.955Z,22.58
2023-12-04T11:52:38.179Z,24.95
2023-12-04T11:55:07.340Z,18.95
2023-12-04T11:57:44.268Z,21.83
2023-12-04T12:00:18.976Z,21.17
2023-12-04T12:03:16.180Z,24.02
2023-12-04T12:05:43.582Z,19.23
2023-12-04T12:08:11.095Z,22.27
2023-12-04T12:10:38.528Z,20.23
2023-12-04T12:13:05.870Z,19.55
2023-12-04T12:15:34.664Z,21.02
2023-12-04T12:18:01.801Z,21.27
2023-12-04T12:20:28.932Z,19.40
2023-12-04T12:22:55.908Z,20.08
2023-12-04T12:25:25.418Z,19.60
2023-12-04T12:27:52.363Z,21.00
2023-12-04T12:30:23.294Z,24.15
2023-12-04T12:32:53.575Z,19.88
2023-12-04T12:35:20.953Z,20.08
2023-12-04T12:37:47.828Z,19.23
2023-12-04T12:40:15.234Z,20.20
2023-12-04T12:42:43.119Z,19.20
2023-12-04T12:45:13.090Z,22.75
2023-12-04T12:47:44.772Z,20.05
2023-12-04T12:50:15.069Z,24.10
2023-12-04T12:52:44.704Z,18.60
2023-12-04T12:55:11.700Z,20.25
2023-12-04T12:57:39.234Z,19.45
2023-12-04T13:00:08.040Z,19.55
2023-12-04T13:02:41.500Z,20.27
2023-12-04T13:07:40.744Z,19.77
2023-12-04T13:10:09.829Z,18.60
2023-12-04T13:12:36.670Z,18.40
2023-12-04T13:15:04.512Z,17.90
2023-12-04T13:17:31.699Z,19.02
2023-12-04T13:19:59.085Z,19.45
2023-12-04T13:22:26.747Z,19.33
2023-12-04T13:24:53.576Z,18.13
2023-12-04T13:27:21.234Z,18.70
2023-12-04T13:29:51.207Z,19.17
2023-12-04T13:32:18.307Z,17.05
2023-12-04T13:34:45.178Z,18.13
2023-12-04T13:37:12.110Z,22.40
2023-12-04T13:39:58.843Z,17.13
2023-12-04T13:42:44.534Z,16.40
2023-12-04T13:45:11.865Z,17.15
2023-12-04T13:47:39.084Z,17.30
2023-12-04T13:50:10.209Z,17.25
2023-12-04T13:52:38.221Z,18.05
2023-12-04T13:55:15.548Z,16.35
2023-12-04T13:57:56.247Z,16.95
2023-12-04T14:00:23.155Z,16.80
2023-12-04T14:02:50.249Z,18.83
2023-12-04T14:05:17.724Z,15.45
2023-12-04T14:07:45.005Z,17.17
2023-12-04T14:10:12.593Z,17.10
2023-12-04T14:12:39.543Z,14.70
2023-12-04T14:15:06.828Z,14.45
2023-12-04T14:17:34.396Z,17.45
2023-12-04T14:20:01.433Z,13.70
2023-12-04T14:22:28.249Z,16.13
2023-12-04T14:24:55.005Z,14.07
2023-12-04T14:27:21.723Z,14.88
2023-12-04T14:29:48.666Z,14.38
2023-12-04T14:32:15.537Z,11.75
2023-12-04T14:34:43.253Z,14.88
2023-12-04T14:37:10.138Z,15.15
2023-12-04T14:39:36.913Z,14.88
2023-12-04T14:42:03.929Z,12.40
2023-12-04T14:44:30.677Z,12.40
2023-12-04T14:46:57.417Z,13.40
2023-12-04T14:49:24.240Z,14.80
2023-12-04T14:51:51.180Z,13.98
2023-12-04T14:54:23.463Z,14.88
2023-12-04T14:56:59.624Z,12.27
2023-12-04T14:59:43.837Z,15.07
2023-12-04T15:02:31.633Z,16.88
2023-12-04T15:05:10.795Z,15.52
2023-12-04T15:08:15.813Z,15.77
2023-12-04T15:11:03.103Z,13.10
2023-12-04T15:13:50.894Z,14.63
2023-12-04T15:16:42.869Z,17.23
2023-12-04T15:19:14.286Z,14.25
2023-12-04T15:21:43.391Z,13.25
2023-12-04T15:24:10.380Z,13.35
2023-12-04T15:26:39.303Z,12.15
2023-12-04T15:29:07.533Z,12.77
2023-12-04T15:31:34.412Z,10.68
2023-12-04T15:34:02.734Z,14.13
2023-12-04T15:36:31.394Z,12.13
2023-12-04T15:38:58.277Z,14.98
2023-12-04T15:41:27.042Z,14.60
2023-12-04T15:43:55.846Z,15.23
2023-12-04T15:46:24.460Z,14.50
2023-12-04T15:48:51.336Z,13.55
2023-12-04T15:51:18.411Z,14.85
2023-12-04T15:53:46.733Z,12.15
2023-12-04T15:56:13.979Z,16.30
2023-12-04T15:58:40.929Z,14.38
2023-12-04T16:01:08.940Z,14.57
2023-12-04T16:03:36.407Z,13.70
2023-12-04T16:06:04.061Z,21.52
2023-12-04T16:08:31.935Z,14.95
2023-12-04T16:10:59.264Z,16.30
2023-12-04T16:13:26.854Z,17.80
2023-12-04T16:15:55.230Z,16.48
2023-12-04T16:18:23.724Z,14.95
2023-12-04T16:20:50.596Z,19.00
2023-12-04T16:23:20.096Z,17.38
2023-12-04T16:25:47.199Z,20.50
2023-12-04T16:28:15.283Z,19.75
2023-12-04T16:30:42.646Z,19.98
2023-12-04T16:33:10.591Z,19.77
2023-12-04T16:35:38.178Z,18.15
2023-12-04T16:38:05.485Z,19.65
2023-12-04T16:40:32.254Z,20.15
2023-12-04T16:43:02.199Z,17.75
2023-12-04T16:45:30.253Z,19.80
2023-12-04T16:47:57.162Z,21.08
2023-12-04T16:50:25.059Z,17.92
2023-12-04T16:52:52.810Z,18.27
2023-12-04T16:55:20.089Z,16.77
2023-12-04T16:57:47.153Z,17.02
2023-12-04T17:00:14.724Z,18.20
2023-12-04T17:02:41.732Z,16.42
2023-12-04T17:05:09.133Z,16.63
2023-12-04T17:07:36.077Z,15.43
2023-12-04T17:10:03.450Z,18.30
2023-12-04T17:12:32.727Z,17.15
2023-12-04T17:14:59.606Z,16.35
2023-12-04T17:17:26.432Z,19.42
2023-12-04T17:19:53.249Z,16.55
2023-12-04T17:22:20.149Z,18.83
2023-12-04T17:24:47.088Z,19.50
2023-12-04T17:27:14.086Z,15.93
2023-12-04T17:29:41.109Z,16.15
2023-12-04T17:32:07.859Z,19.83
2023-12-04T17:34:35.140Z,17.25
2023-12-04T17:37:01.973Z,14.98
2023-12-04T17:39:28.826Z,19.02
2023-12-04T17:41:56.095Z,18.40
2023-12-04T17:44:23.013Z,17.35
2023-12-04T17:46:49.900Z,18.42
2023-12-04T17:49:17.792Z,18.30
2023-12-04T17:51:44.935Z,17.88
2023-12-04T17:54:12.067Z,16.75
2023-12-04T17:56:39.043Z,16.45
2023-12-04T17:59:05.827Z,19.30
2023-12-04T18:01:32.876Z,16.50
2023-12-04T18:03:59.817Z,17.17
2023-12-04T18:06:28.404Z,16.23
2023-12-04T18:08:56.067Z,17.48
2023-12-04T18:11:23.360Z,17.48
2023-12-04T18:13:50.717Z,18.45
2023-12-04T18:16:17.491Z,16.85
2023-12-04T18:18:44.426Z,18.08
2023-12-04T18:21:11.476Z,20.50
2023-12-04T18:23:39.431Z,19.30
2023-12-04T18:26:09.226Z,21.13
2023-12-04T18:28:37.858Z,18.88
2023-12-04T18:31:05.463Z,16.10
2023-12-04T18:33:36.677Z,22.25
2023-12-04T18:36:07.164Z,21.35
2023-12-04T18:38:43.664Z,21.13
2023-12-04T18:41:11.131Z,19.58
2023-12-04T18:43:38.204Z,20.67
2023-12-04T18:46:05.436Z,20.15
2023-12-04T18:48:37.383Z,18.55
2023-12-04T18:51:04.734Z,22.63
2023-12-04T18:53:31.801Z,20.35
2023-12-04T18:55:58.850Z,19.13
2023-12-04T18:58:28.121Z,17.40
2023-12-04T19:00:55.006Z,19.88
2023-12-04T19:03:22.079Z,18.77
2023-12-04T19:05:49.668Z,21.33
2023-12-04T19:08:17.670Z,20.73
2023-12-04T19:10:45.439Z,22.85
2023-12-04T19:13:12.533Z,20.48
2023-12-04T19:15:39.478Z,20.50
2023-12-04T19:18:06.562Z,20.33
2023-12-04T19:20:33.795Z,20.98
2023-12-04T19:23:06.117Z,23.08
2023-12-04T19:28:06.679Z,20.75
2023-12-04T19:30:34.734Z,19.83
2023-12-04T19:33:03.322Z,22.48
2023-12-04T19:35:31.665Z,20.17
2023-12-04T19:37:58.706Z,20.20
2023-12-04T19:40:26.394Z,22.42
2023-12-04T19:42:53.248Z,20.45
2023-12-04T19:45:20.080Z,21.70
2023-12-04T19:47:47.040Z,20.98
2023-12-04T19:50:14.214Z,18.27
2023-12-04T19:52:41.113Z,19.25
2023-12-04T19:55:08.414Z,16.88
2023-12-04T19:57:35.364Z,21.88
2023-12-04T20:00:04.387Z,19.55
2023-12-04T20:02:31.786Z,20.02
2023-12-04T20:04:58.911Z,20.33
2023-12-04T20:07:26.887Z,19.27
2023-12-04T20:09:54.246Z,18.88
2023-12-04T20:12:21.446Z,18.38
2023-12-04T20:14:52.356Z,20.55
2023-12-04T20:17:19.465Z,18.30
2023-12-04T20:19:46.419Z,18.38
2023-12-04T20:22:14.495Z,20.42
2023-12-04T20:24:41.570Z,19.63
2023-12-04T20:27:08.859Z,20.73
2023-12-04T20:29:35.999Z,19.35
2023-12-04T20:32:02.910Z,21.33
2023-12-04T20:34:31.175Z,20.00
2023-12-04T20:36:58.104Z,17.75
2023-12-04T20:39:26.989Z,17.83
2023-12-04T20:41:55.946Z,20.55
2023-12-04T20:44:23.310Z,16.67
2023-12-04T20:46:51.286Z,20.38
2023-12-04T20:49:18.332Z,19.88
2023-12-04T20:51:45.989Z,16.50
2023-12-04T20:54:13.330Z,19.25
2023-12-04T20:56:40.227Z,19.40
2023-12-04T20:59:07.690Z,15.75
2023-12-04T21:01:36.441Z,17.58
2023-12-04T21:04:04.179Z,18.85
2023-12-04T21:06:32.853Z,20.85
2023-12-04T21:08:59.946Z,18.23
2023-12-04T21:11:27.530Z,19.73
2023-12-04T21:13:54.375Z,20.35
2023-12-04T21:16:21.765Z,21.65
2023-12-04T21:18:49.873Z,21.45
2023-12-04T21:21:17.738Z,20.45
2023-12-04T21:23:44.987Z,21.17
2023-12-04T21:26:12.000Z,18.20
2023-12-04T21:28:38.910Z,18.75
2023-12-04T21:31:06.714Z,21.33
2023-12-04T21:33:33.705Z,16.92
2023-12-04T21:36:00.520Z,22.65
2023-12-04T21:38:27.502Z,17.70
2023-12-04T21:40:54.768Z,18.45
2023-12-04T21:43:21.791Z,23.23
2023-12-04T21:45:48.665Z,17.70
2023-12-04T21:48:15.629Z,18.38
2023-12-04T21:50:44.648Z,20.88
2023-12-04T21:53:11.543Z,18.35
2023-12-04T21:55:38.349Z,20.45
2023-12-04T21:58:05.102Z,21.77
2023-12-04T22:00:31.997Z,19.05
2023-12-04T22:02:58.884Z,18.55
2023-12-04T22:05:27.796Z,19.40
2023-12-04T22:07:54.952Z,18.98
2023-12-04T22:10:21.848Z,21.63
2023-12-04T22:12:48.767Z,21.00
2023-12-04T22:15:15.653Z,23.38
2023-12-04T22:17:43.481Z,25.23
2023-12-04T22:20:10.869Z,21.90
2023-12-04T22:22:37.774Z,23.33
2023-12-04T22:25:05.028Z,23.15
2023-12-04T22:27:32.203Z,23.25
2023-12-04T22:29:59.011Z,21.33
2023-12-04T22:32:25.869Z,21.02
2023-12-04T22:34:52.853Z,21.13
2023-12-04T22:37:19.699Z,18.02
2023-12-04T22:39:46.613Z,18.52
2023-12-04T22:42:13.583Z,18.83
2023-12-04T22:44:40.660Z,20.25
2023-12-04T22:47:07.467Z,21.27
2023-12-04T22:49:35.153Z,21.33
2023-12-04T22:52:01.971Z,21.05
2023-12-04T22:54:28.878Z,20.58
2023-12-04T22:56:56.192Z,19.92
2023-12-04T22:59:23.035Z,20.45
2023-12-04T23:01:49.819Z,20.42
2023-12-04T23:04:16.965Z,22.70
2023-12-04T23:06:43.827Z,19.55
2023-12-04T23:09:10.795Z,18.77
2023-12-04T23:11:37.789Z,22.98
2023-12-04T23:14:04.540Z,20.92
2023-12-04T23:16:31.421Z,24.85
2023-12-04T23:19:01.390Z,21.95
2023-12-04T23:21:29.141Z,22.75
2023-12-04T23:23:56.764Z,18.38
2023-12-04T23:26:23.508Z,23.98
2023-12-04T23:28:50.653Z,21.40
2023-12-04T23:31:17.633Z,21.55
2023-12-04T23:33:44.480Z,24.38
2023-12-04T23:36:12.222Z,21.05
2023-12-04T23:38:39.336Z,23.55
2023-12-04T23:41:06.485Z,22.83
2023-12-04T23:43:33.542Z,23.27
2023-12-04T23:46:00.502Z,25.90
2023-12-04T23:48:27.490Z,24.35
2023-12-04T23:50:54.544Z,26.35
2023-12-04T23:53:21.417Z,27.95
2023-12-04T23:55:48.349Z,25.17
2023-12-04T23:58:15.191Z,22.00
